createdAt,value
2019-02-15T00:01:30.226Z,-0.10
2019-02-15T00:04:01.991Z,-0.10
2019-02-15T00:06:33.184Z,-0.10
2019-02-15T00:09:05.374Z,-0.10
2019-02-15T00:11:37.839Z,-0.20
2019-02-15T00:14:08.676Z,-0.20
2019-02-15T00:16:39.489Z,-0.10
2019-02-15T00:19:11.961Z,-0.10
2019-02-15T00:21:42.900Z,-0.30
2019-02-15T00:24:13.863Z,-0.30
2019-02-15T00:26:44.778Z,-0.20
2019-02-15T00:29:15.841Z,-0.50
2019-02-15T00:31:47.804Z,-0.40
2019-02-15T00:34:18.717Z,-0.50
2019-02-15T00:36:50.513Z,-0.40
2019-02-15T00:39:21.643Z,-0.40
2019-02-15T00:41:54.257Z,-0.40
2019-02-15T00:44:26.092Z,-0.50
2019-02-15T00:47:02.423Z,-0.50
2019-02-15T00:49:35.431Z,-0.50
2019-02-15T00:52:09.777Z,-0.60
2019-02-15T00:54:45.269Z,-0.70
2019-02-15T00:57:20.814Z,-0.60
2019-02-15T00:59:55.333Z,-0.50
2019-02-15T01:02:28.457Z,-0.60
2019-02-15T01:05:04.208Z,-0.70
2019-02-15T01:07:40.056Z,-0.80
2019-02-15T01:15:32.804Z,-0.80
2019-02-15T01:18:03.769Z,-0.90
2019-02-15T01:20:36.725Z,-0.70
2019-02-15T01:23:08.099Z,-0.70
2019-02-15T01:25:40.973Z,-0.90
2019-02-15T01:28:20.001Z,-1.00
2019-02-15T01:30:52.975Z,-1.00
2019-02-15T01:33:31.962Z,-1.00
2019-02-15T01:36:11.046Z,-1.00
2019-02-15T01:38:43.949Z,-0.90
2019-02-15T01:41:17.056Z,-1.00
2019-02-15T01:43:50.026Z,-1.20
2019-02-15T01:46:28.951Z,-1.20
2019-02-15T01:49:00.475Z,-1.20
2019-02-15T01:51:31.918Z,-1.20
2019-02-15T01:54:03.260Z,-1.20
2019-02-15T01:56:36.071Z,-1.10
2019-02-15T01:59:08.986Z,-1.20
2019-02-15T02:01:39.961Z,-1.30
2019-02-15T02:04:12.175Z,-1.30
2019-02-15T02:06:44.221Z,-1.20
2019-02-15T02:09:15.262Z,-1.30
2019-02-15T02:11:47.947Z,-1.40
2019-02-15T02:14:18.883Z,-1.40
2019-02-15T02:16:49.815Z,-1.40
2019-02-15T02:19:20.757Z,-1.30
2019-02-15T02:21:52.616Z,-1.30
2019-02-15T02:24:23.656Z,-1.30
2019-02-15T02:26:54.594Z,-1.20
2019-02-15T02:29:26.502Z,-1.30
2019-02-15T02:31:57.391Z,-1.30
2019-02-15T02:34:28.223Z,-1.40
2019-02-15T02:36:59.170Z,-1.60
2019-02-15T02:39:29.997Z,-1.50
2019-02-15T02:42:00.936Z,-1.50
2019-02-15T02:44:32.770Z,-1.50
2019-02-15T02:47:03.605Z,-1.40
2019-02-15T02:49:34.569Z,-1.50
2019-02-15T02:52:05.485Z,-1.50
2019-02-15T02:54:36.448Z,-1.50
2019-02-15T02:57:07.279Z,-1.60
2019-02-15T02:59:38.221Z,-1.60
2019-02-15T03:02:09.162Z,-1.60
2019-02-15T03:04:40.105Z,-1.70
2019-02-15T03:07:11.034Z,-1.50
2019-02-15T03:09:41.869Z,-1.40
2019-02-15T03:12:12.706Z,-1.50
2019-02-15T03:14:43.642Z,-1.40
2019-02-15T03:17:14.589Z,-1.50
2019-02-15T03:19:45.495Z,-1.50
2019-02-15T03:22:16.429Z,-1.60
2019-02-15T03:24:47.774Z,-1.50
2019-02-15T03:27:18.744Z,-1.60
2019-02-15T03:29:49.677Z,-1.60
2019-02-15T03:32:20.722Z,-1.60
2019-02-15T03:34:54.037Z,-1.80
2019-02-15T03:37:44.922Z,-1.80
2019-02-15T03:40:23.351Z,-1.70
2019-02-15T03:42:54.146Z,-1.70
2019-02-15T03:45:25.106Z,-1.80
2019-02-15T03:47:55.943Z,-1.80
2019-02-15T03:50:26.778Z,-1.70
2019-02-15T03:52:58.125Z,-1.90
2019-02-15T03:55:29.035Z,-1.80
2019-02-15T03:58:00.002Z,-1.80
2019-02-15T04:00:30.935Z,-1.90
2019-02-15T04:03:02.054Z,-1.90
2019-02-15T04:05:33.559Z,-2.00
2019-02-15T04:08:04.445Z,-1.90
2019-02-15T04:10:35.409Z,-2.00
2019-02-15T04:13:07.368Z,-1.90
2019-02-15T04:15:38.307Z,-1.90
2019-02-15T04:18:09.242Z,-1.90
2019-02-15T04:20:41.228Z,-2.00
2019-02-15T04:23:13.681Z,-1.90
2019-02-15T04:25:44.621Z,-2.00
2019-02-15T04:28:15.557Z,-2.00
2019-02-15T04:30:46.390Z,-2.00
2019-02-15T04:33:18.642Z,-2.00
2019-02-15T04:35:49.494Z,-2.10
2019-02-15T04:38:20.334Z,-2.10
2019-02-15T04:40:51.141Z,-2.00
2019-02-15T04:43:23.330Z,-1.90
2019-02-15T04:45:54.275Z,-1.90
2019-02-15T04:48:26.210Z,-1.90
2019-02-15T04:50:57.169Z,-2.00
2019-02-15T04:53:28.924Z,-2.10
2019-02-15T04:55:59.763Z,-2.10
2019-02-15T04:58:30.571Z,-2.00
2019-02-15T05:01:01.537Z,-1.90
2019-02-15T05:03:33.372Z,-2.00
2019-02-15T05:06:04.335Z,-1.90
2019-02-15T05:08:35.171Z,-1.90
2019-02-15T05:11:06.005Z,-1.90
2019-02-15T05:13:38.289Z,-1.90
2019-02-15T05:16:09.209Z,-2.00
2019-02-15T05:18:40.234Z,-1.90
2019-02-15T05:21:12.790Z,-2.00
2019-02-15T05:23:43.967Z,-2.10
2019-02-15T05:26:14.777Z,-2.10
2019-02-15T05:28:45.936Z,-2.10
2019-02-15T05:31:16.989Z,-2.20
2019-02-15T05:33:47.830Z,-2.40
2019-02-15T05:36:18.762Z,-2.30
2019-02-15T05:38:51.426Z,-2.30
2019-02-15T05:41:22.379Z,-2.30
2019-02-15T05:43:53.318Z,-2.20
2019-02-15T05:46:24.366Z,-2.30
2019-02-15T05:48:55.295Z,-2.40
2019-02-15T05:51:26.132Z,-2.20
2019-02-15T05:53:57.173Z,-2.30
2019-02-15T05:56:27.974Z,-2.20
2019-02-15T05:58:58.842Z,-2.00
2019-02-15T06:01:30.186Z,-2.10
2019-02-15T06:04:01.842Z,-2.20
2019-02-15T06:06:32.697Z,-2.20
2019-02-15T06:09:05.161Z,-2.10
2019-02-15T06:11:35.992Z,-2.20
2019-02-15T06:14:08.938Z,-2.30
2019-02-15T06:16:39.915Z,-2.30
2019-02-15T06:19:10.823Z,-2.30
2019-02-15T06:21:41.901Z,-2.30
2019-02-15T06:24:12.936Z,-2.20
2019-02-15T06:26:43.870Z,-2.20
2019-02-15T06:29:14.808Z,-2.20
2019-02-15T06:31:45.624Z,-2.30
2019-02-15T06:34:16.886Z,-2.30
2019-02-15T06:36:48.012Z,-2.30
2019-02-15T06:39:19.072Z,-2.30
2019-02-15T06:41:49.976Z,-2.20
2019-02-15T06:44:21.047Z,-2.10
2019-02-15T06:46:51.880Z,-2.10
2019-02-15T06:49:22.716Z,-2.10
2019-02-15T06:51:53.628Z,-2.10
2019-02-15T06:54:26.227Z,-2.00
2019-02-15T06:56:57.171Z,-1.90
2019-02-15T06:59:32.717Z,-1.90
2019-02-15T07:02:07.965Z,-1.90
2019-02-15T07:04:40.430Z,-1.80
2019-02-15T07:07:11.548Z,-1.80
2019-02-15T07:09:42.408Z,-1.80
2019-02-15T07:12:13.346Z,-1.70
2019-02-15T07:14:44.286Z,-1.70
2019-02-15T07:17:15.223Z,-1.60
2019-02-15T07:19:46.034Z,-1.50
2019-02-15T07:22:16.996Z,-1.50
2019-02-15T07:24:49.162Z,-1.40
2019-02-15T07:27:20.099Z,-1.40
2019-02-15T07:29:50.935Z,-1.30
2019-02-15T07:32:21.873Z,-1.30
2019-02-15T07:34:54.040Z,-1.20
2019-02-15T07:37:24.872Z,-1.10
2019-02-15T07:42:26.002Z,2.80
2019-02-15T07:44:58.201Z,2.80
2019-02-15T07:47:29.136Z,2.50
2019-02-15T07:50:00.715Z,2.30
2019-02-15T07:52:32.038Z,2.20
2019-02-15T07:55:03.489Z,3.20
2019-02-15T07:57:34.429Z,5.50
2019-02-15T08:00:15.484Z,7.80
2019-02-15T08:02:46.336Z,8.90
2019-02-15T08:05:17.476Z,8.10
2019-02-15T08:07:48.420Z,7.00
2019-02-15T08:10:19.227Z,8.00
2019-02-15T08:12:50.191Z,9.50
2019-02-15T08:15:21.668Z,11.00
2019-02-15T08:17:52.781Z,11.70
2019-02-15T08:20:23.701Z,11.90
2019-02-15T08:22:54.634Z,12.40
2019-02-15T08:25:26.317Z,12.60
2019-02-15T08:27:58.205Z,13.50
2019-02-15T08:30:29.215Z,14.40
2019-02-15T08:33:00.157Z,14.90
2019-02-15T08:35:32.628Z,14.60
2019-02-15T08:38:03.667Z,15.40
2019-02-15T08:40:34.608Z,15.80
2019-02-15T08:43:05.416Z,16.40
2019-02-15T08:45:37.567Z,16.20
2019-02-15T08:48:08.545Z,16.60
2019-02-15T08:50:39.482Z,16.80
2019-02-15T08:53:10.399Z,17.30
2019-02-15T08:55:41.358Z,17.60
2019-02-15T08:58:14.078Z,18.30
2019-02-15T09:00:45.999Z,18.60
2019-02-15T09:03:16.865Z,18.70
2019-02-15T09:05:49.105Z,18.00
2019-02-15T09:08:19.938Z,18.60
2019-02-15T09:10:50.878Z,18.80
2019-02-15T09:13:21.816Z,19.00
2019-02-15T09:15:53.702Z,19.20
2019-02-15T09:18:24.613Z,19.40
2019-02-15T09:20:55.551Z,19.90
2019-02-15T09:23:26.593Z,19.70
2019-02-15T09:25:58.523Z,20.20
2019-02-15T09:28:40.142Z,20.30
2019-02-15T09:31:11.050Z,20.30
2019-02-15T09:33:41.986Z,19.70
2019-02-15T09:36:14.491Z,19.80
2019-02-15T09:38:45.273Z,19.60
2019-02-15T09:41:16.116Z,19.50
2019-02-15T09:43:47.088Z,19.90
2019-02-15T09:46:20.211Z,20.50
2019-02-15T09:48:51.149Z,20.30
2019-02-15T09:51:22.112Z,20.60
2019-02-15T09:53:53.106Z,20.60
2019-02-15T09:56:25.358Z,21.20
2019-02-15T09:58:56.292Z,21.80
2019-02-15T10:01:27.237Z,22.20
2019-02-15T10:03:58.196Z,22.60
2019-02-15T10:06:29.673Z,22.80
2019-02-15T10:09:00.578Z,22.30
2019-02-15T10:11:33.025Z,22.20
2019-02-15T10:14:05.142Z,22.20
2019-02-15T10:16:36.876Z,22.20
2019-02-15T10:19:07.792Z,22.20
2019-02-15T10:21:38.723Z,22.60
2019-02-15T10:24:09.687Z,22.60
2019-02-15T10:26:40.914Z,22.60
2019-02-15T10:29:11.766Z,22.80
2019-02-15T10:31:42.810Z,22.90
2019-02-15T10:34:13.952Z,22.10
2019-02-15T10:36:45.903Z,22.20
2019-02-15T10:39:16.855Z,21.40
2019-02-15T10:41:47.790Z,22.60
2019-02-15T10:44:18.731Z,23.40
2019-02-15T10:46:51.200Z,22.30
2019-02-15T10:49:22.142Z,22.30
2019-02-15T10:51:53.088Z,22.80
2019-02-15T10:54:23.997Z,23.70
2019-02-15T10:56:56.904Z,24.00
2019-02-15T10:59:28.444Z,24.20
2019-02-15T11:02:00.735Z,24.00
2019-02-15T11:04:31.903Z,24.00
2019-02-15T11:07:05.049Z,23.50
2019-02-15T11:09:36.526Z,24.30
2019-02-15T11:12:09.470Z,24.20
2019-02-15T11:14:40.663Z,24.40
2019-02-15T11:17:13.409Z,24.10
2019-02-15T11:19:46.919Z,24.80
2019-02-15T11:22:18.341Z,23.30
2019-02-15T11:24:49.383Z,24.70
2019-02-15T11:27:20.659Z,25.10
2019-02-15T11:29:52.241Z,24.00
2019-02-15T11:32:23.659Z,24.50
2019-02-15T11:34:55.548Z,25.30
2019-02-15T11:37:26.639Z,24.10
2019-02-15T11:39:58.248Z,24.90
2019-02-15T11:42:29.342Z,25.00
2019-02-15T11:45:02.095Z,25.40
2019-02-15T11:47:34.731Z,25.70
2019-02-15T11:50:09.768Z,25.20
2019-02-15T11:52:41.255Z,25.20
2019-02-15T11:55:13.382Z,25.30
2019-02-15T11:57:44.894Z,24.70
2019-02-15T12:00:31.213Z,25.50
2019-02-15T12:03:02.844Z,25.10
2019-02-15T12:05:34.332Z,25.90
2019-02-15T12:08:05.496Z,25.80
2019-02-15T12:10:37.258Z,25.10
2019-02-15T12:13:08.370Z,24.30
2019-02-15T12:15:39.675Z,24.40
2019-02-15T12:18:11.205Z,25.20
2019-02-15T12:20:43.362Z,25.20
2019-02-15T12:23:14.683Z,25.80
2019-02-15T12:25:45.821Z,26.00
2019-02-15T12:28:17.759Z,25.40
2019-02-15T12:30:49.273Z,25.80
2019-02-15T12:33:20.945Z,26.20
2019-02-15T12:35:52.272Z,26.70
2019-02-15T12:38:23.558Z,26.30
2019-02-15T12:40:57.014Z,25.30
2019-02-15T12:43:28.575Z,25.20
2019-02-15T12:45:59.862Z,25.30
2019-02-15T12:48:31.589Z,25.50
2019-02-15T12:51:04.324Z,25.60
2019-02-15T12:53:35.921Z,26.00
2019-02-15T12:56:06.852Z,25.70
2019-02-15T12:58:38.397Z,25.40
2019-02-15T13:01:11.210Z,25.50
2019-02-15T13:03:42.777Z,26.00
2019-02-15T13:06:14.313Z,24.70
2019-02-15T13:08:45.920Z,25.00
2019-02-15T13:11:18.861Z,25.80
2019-02-15T13:13:50.339Z,25.80
2019-02-15T13:16:21.660Z,25.10
2019-02-15T13:18:52.935Z,25.40
2019-02-15T13:21:25.530Z,24.00
2019-02-15T13:23:57.057Z,25.00
2019-02-15T13:26:28.471Z,25.40
2019-02-15T13:29:00.162Z,24.60
2019-02-15T13:31:31.866Z,24.40
2019-02-15T13:34:03.209Z,23.80
2019-02-15T13:36:34.529Z,22.70
2019-02-15T13:39:06.299Z,22.90
2019-02-15T13:41:40.146Z,23.50
2019-02-15T13:44:13.169Z,22.80
2019-02-15T13:46:44.487Z,22.50
2019-02-15T13:49:15.655Z,21.90
2019-02-15T13:51:48.261Z,21.50
2019-02-15T13:54:19.277Z,21.60
2019-02-15T13:56:50.214Z,21.30
2019-02-15T13:59:22.091Z,21.00
2019-02-15T14:01:54.479Z,20.20
2019-02-15T14:04:25.918Z,20.70
2019-02-15T14:06:57.629Z,20.50
2019-02-15T14:09:28.593Z,21.30
2019-02-15T14:11:59.532Z,21.10
2019-02-15T14:14:30.470Z,21.20
2019-02-15T14:17:02.227Z,21.50
2019-02-15T14:19:33.167Z,20.60
2019-02-15T14:22:04.206Z,20.10
2019-02-15T14:24:35.126Z,20.20
2019-02-15T14:27:06.072Z,20.00
2019-02-15T14:29:37.124Z,20.00
2019-02-15T14:32:08.060Z,20.30
2019-02-15T14:34:39.001Z,20.50
2019-02-15T14:37:11.066Z,20.30
2019-02-15T14:39:42.695Z,20.20
2019-02-15T14:42:13.971Z,19.70
2019-02-15T14:44:45.277Z,19.90
2019-02-15T14:47:16.568Z,19.60
2019-02-15T14:49:48.122Z,19.80
2019-02-15T14:52:19.677Z,19.70
2019-02-15T14:54:52.264Z,19.70
2019-02-15T14:57:23.691Z,20.00
2019-02-15T14:59:55.111Z,20.40
2019-02-15T15:02:26.316Z,20.50
2019-02-15T15:04:58.060Z,20.40
2019-02-15T15:07:29.679Z,20.40
2019-02-15T15:10:00.982Z,20.10
2019-02-15T15:12:32.697Z,19.60
2019-02-15T15:15:06.072Z,19.30
2019-02-15T15:17:37.840Z,18.70
2019-02-15T15:20:11.855Z,17.60
2019-02-15T15:22:43.410Z,16.90
2019-02-15T15:25:16.007Z,16.30
2019-02-15T15:27:47.679Z,15.60
2019-02-15T15:30:18.876Z,15.10
2019-02-15T15:32:50.499Z,15.00
2019-02-15T15:35:23.236Z,14.90
2019-02-15T15:37:54.628Z,14.80
2019-02-15T15:40:26.062Z,14.80
2019-02-15T15:42:57.352Z,14.30
2019-02-15T15:45:30.221Z,13.60
2019-02-15T15:48:01.814Z,13.20
2019-02-15T15:50:33.406Z,12.70
2019-02-15T15:53:04.608Z,12.50
2019-02-15T15:55:37.865Z,12.50
2019-02-15T15:58:09.037Z,12.10
2019-02-15T16:00:40.306Z,11.50
2019-02-15T16:03:11.537Z,11.10
2019-02-15T16:05:44.086Z,10.60
2019-02-15T16:08:15.563Z,10.80
2019-02-15T16:10:46.705Z,11.00
2019-02-15T16:13:18.068Z,11.30
2019-02-15T16:15:49.610Z,10.80
2019-02-15T16:18:20.928Z,10.10
2019-02-15T16:20:52.338Z,9.70
2019-02-15T16:23:23.712Z,9.60
2019-02-15T16:25:55.622Z,9.20
2019-02-15T16:28:31.575Z,9.10
2019-02-15T16:31:02.711Z,8.90
2019-02-15T16:33:33.651Z,8.80
2019-02-15T16:36:07.109Z,8.60
2019-02-15T16:38:39.528Z,8.60
2019-02-15T16:41:11.534Z,9.10
2019-02-15T16:43:42.627Z,8.80
2019-02-15T16:46:16.111Z,8.50
2019-02-15T16:48:47.539Z,8.10
2019-02-15T16:51:19.003Z,7.80
2019-02-15T16:53:50.481Z,8.00
2019-02-15T16:56:21.485Z,8.40
2019-02-15T16:58:54.340Z,8.60
2019-02-15T17:01:25.524Z,8.60
2019-02-15T17:03:57.946Z,8.60
2019-02-15T17:06:30.158Z,8.50
2019-02-15T17:09:02.070Z,8.40
2019-02-15T17:11:34.983Z,8.20
2019-02-15T17:14:09.854Z,8.20
2019-02-15T17:16:41.427Z,7.50
2019-02-15T17:19:12.658Z,7.20
2019-02-15T17:21:43.596Z,7.00
2019-02-15T17:24:14.532Z,6.60
2019-02-15T17:26:47.763Z,7.20
2019-02-15T17:29:19.377Z,7.30
2019-02-15T17:31:50.490Z,7.10
2019-02-15T17:34:21.459Z,6.90
2019-02-15T17:36:53.324Z,7.00
2019-02-15T17:39:26.612Z,6.90
2019-02-15T17:41:58.345Z,6.80
2019-02-15T17:44:29.259Z,6.50
2019-02-15T17:47:02.066Z,6.40
2019-02-15T17:49:33.229Z,6.40
2019-02-15T17:52:05.489Z,6.40
2019-02-15T17:54:39.137Z,5.90
2019-02-15T17:57:13.590Z,5.90
2019-02-15T17:59:45.790Z,6.00
2019-02-15T18:02:20.528Z,5.90
2019-02-15T18:05:02.822Z,5.60
2019-02-15T18:07:45.951Z,5.90
2019-02-15T18:10:17.921Z,5.90
2019-02-15T18:12:49.356Z,5.60
2019-02-15T18:15:23.296Z,5.50
2019-02-15T18:17:56.734Z,5.50
2019-02-15T18:20:29.168Z,5.50
2019-02-15T18:23:08.777Z,5.50
2019-02-15T18:25:41.418Z,5.40
2019-02-15T18:28:17.048Z,5.40
2019-02-15T18:30:48.148Z,5.50
2019-02-15T18:33:19.661Z,5.30
2019-02-15T18:35:50.863Z,5.10
2019-02-15T18:38:23.140Z,5.00
2019-02-15T18:40:55.079Z,5.10
2019-02-15T18:43:27.661Z,4.90
2019-02-15T18:46:01.251Z,4.90
2019-02-15T18:48:33.722Z,4.70
2019-02-15T18:51:04.986Z,4.70
2019-02-15T18:53:41.451Z,4.50
2019-02-15T18:56:13.974Z,4.40
2019-02-15T18:58:46.575Z,4.50
2019-02-15T19:01:18.575Z,4.40
2019-02-15T19:03:49.956Z,4.40
2019-02-15T19:06:21.655Z,4.40
2019-02-15T19:08:54.395Z,4.30
2019-02-15T19:11:26.777Z,4.20
2019-02-15T19:13:59.496Z,3.80
2019-02-15T19:16:33.843Z,3.80
2019-02-15T19:19:13.372Z,3.30
2019-02-15T19:21:48.126Z,3.40
2019-02-15T19:24:20.665Z,3.20
2019-02-15T19:26:53.042Z,3.00
2019-02-15T19:29:26.998Z,2.80
2019-02-15T19:31:59.284Z,2.70
2019-02-15T19:34:34.619Z,2.80
2019-02-15T19:37:10.025Z,3.10
2019-02-15T19:39:45.848Z,3.20
2019-02-15T19:42:18.556Z,3.30
2019-02-15T19:44:51.406Z,3.20
2019-02-15T19:47:27.043Z,3.10
2019-02-15T19:50:01.395Z,3.00
2019-02-15T19:52:33.803Z,3.00
2019-02-15T19:55:08.019Z,2.90
2019-02-15T19:57:40.746Z,3.30
2019-02-15T20:00:19.001Z,3.40
2019-02-15T20:02:53.909Z,3.50
2019-02-15T20:05:26.921Z,3.40
2019-02-15T20:08:01.429Z,3.30
2019-02-15T20:10:35.505Z,3.20
2019-02-15T20:13:09.752Z,2.70
2019-02-15T20:15:43.175Z,2.50
2019-02-15T20:18:16.006Z,2.70
2019-02-15T20:20:49.175Z,2.90
2019-02-15T20:23:21.784Z,2.90
2019-02-15T20:25:55.405Z,2.90
2019-02-15T20:28:29.032Z,3.00
2019-02-15T20:31:03.343Z,2.80
2019-02-15T20:33:37.896Z,2.70
2019-02-15T20:36:12.215Z,2.80
2019-02-15T20:38:45.897Z,2.70
2019-02-15T20:41:20.654Z,2.80
2019-02-15T20:43:54.531Z,2.90
2019-02-15T20:46:29.324Z,2.80
2019-02-15T20:49:05.971Z,2.60
2019-02-15T20:51:42.305Z,2.60
2019-02-15T20:54:16.275Z,2.50
2019-02-15T20:57:03.338Z,2.40
2019-02-15T20:59:36.488Z,2.10
2019-02-15T21:02:17.709Z,2.10
2019-02-15T21:04:53.451Z,2.10
2019-02-15T21:07:27.409Z,2.20
2019-02-15T21:10:03.865Z,2.10
2019-02-15T21:12:43.189Z,2.10
2019-02-15T21:15:14.831Z,2.10
2019-02-15T21:17:49.812Z,1.90
2019-02-15T21:20:29.725Z,2.00
2019-02-15T21:23:03.471Z,2.30
2019-02-15T21:25:35.960Z,2.30
2019-02-15T21:28:16.231Z,2.10
2019-02-15T21:30:57.252Z,1.90
2019-02-15T21:33:29.990Z,1.60
2019-02-15T21:36:01.945Z,1.60
2019-02-15T21:38:38.032Z,1.40
2019-02-15T21:41:12.482Z,1.70
2019-02-15T21:43:55.939Z,1.50
2019-02-15T21:46:35.124Z,1.40
2019-02-15T21:49:10.808Z,1.40
2019-02-15T21:51:55.156Z,1.70
2019-02-15T21:54:28.142Z,1.70
2019-02-15T21:57:04.969Z,1.70
2019-02-15T21:59:42.406Z,1.60
2019-02-15T22:02:29.471Z,1.50
2019-02-15T22:05:04.102Z,1.30
2019-02-15T22:07:38.797Z,1.20
2019-02-15T22:10:13.764Z,1.40
2019-02-15T22:12:46.025Z,1.20
2019-02-15T22:15:20.817Z,1.10
2019-02-15T22:17:59.858Z,1.30
2019-02-15T22:20:31.650Z,1.30
2019-02-15T22:23:02.988Z,1.10
2019-02-15T22:25:34.747Z,1.00
2019-02-15T22:28:07.627Z,1.10
2019-02-15T22:30:41.466Z,1.30
2019-02-15T22:33:14.313Z,1.30
2019-02-15T22:35:49.449Z,1.30
2019-02-15T22:38:22.200Z,1.50
2019-02-15T22:41:02.228Z,1.00
2019-02-15T22:43:33.427Z,1.10
2019-02-15T22:46:05.315Z,1.10
2019-02-15T22:48:37.837Z,1.40
2019-02-15T22:51:10.471Z,1.30
2019-02-15T22:53:45.326Z,0.90
2019-02-15T22:56:16.281Z,1.00
2019-02-15T22:58:47.780Z,1.10
2019-02-15T23:01:20.240Z,1.30
2019-02-15T23:03:52.193Z,1.10
2019-02-15T23:06:26.084Z,0.80
2019-02-15T23:08:57.948Z,0.70
2019-02-15T23:11:31.600Z,0.80
2019-02-15T23:14:02.703Z,0.80
2019-02-15T23:16:34.131Z,0.90
2019-02-15T23:19:05.991Z,1.00
2019-02-15T23:21:37.002Z,1.00
2019-02-15T23:24:09.232Z,0.80
2019-02-15T23:26:46.580Z,0.70
2019-02-15T23:29:17.404Z,0.80
2019-02-15T23:31:50.287Z,0.80
2019-02-15T23:34:22.995Z,1.10
2019-02-15T23:36:55.532Z,1.00
2019-02-15T23:39:26.980Z,1.00
2019-02-15T23:41:58.873Z,0.60
2019-02-15T23:44:30.442Z,0.70
2019-02-15T23:47:02.372Z,0.70
2019-02-15T23:49:33.552Z,0.60
2019-02-15T23:52:05.414Z,0.40
2019-02-15T23:54:37.146Z,0.40
2019-02-15T23:57:08.105Z,0.50
2019-02-15T23:59:39.144Z,0.60
